createdAt,value
2022-10-31T00:01:33.730Z,99806.66
2022-10-31T00:04:01.638Z,99804.41
2022-10-31T00:06:29.524Z,99796.88
2022-10-31T00:09:03.108Z,99797.19
2022-10-31T00:11:33.773Z,99798.59
2022-10-31T00:14:01.987Z,99793.44
2022-10-31T00:16:31.475Z,99799.44
2022-10-31T00:19:05.505Z,99799.47
2022-10-31T00:21:34.261Z,99793.75
2022-10-31T00:24:02.389Z,99797.31
2022-10-31T00:26:31.966Z,99791.91
2022-10-31T00:29:00.574Z,99792.81
2022-10-31T00:31:28.765Z,99801.63
2022-10-31T00:33:56.377Z,99797.44
2022-10-31T00:36:23.844Z,99799.47
2022-10-31T00:38:51.334Z,99795.19
2022-10-31T00:41:20.113Z,99801.53
2022-10-31T00:43:47.923Z,99802.59
2022-10-31T00:46:15.999Z,99795.31
2022-10-31T00:48:44.206Z,99797.00
2022-10-31T00:51:12.416Z,99795.13
2022-10-31T00:53:41.917Z,99794.97
2022-10-31T00:56:09.507Z,99809.91
2022-10-31T00:58:37.374Z,99808.06
2022-10-31T01:01:05.433Z,99804.47
2022-10-31T01:03:34.865Z,99800.22
2022-10-31T01:06:11.322Z,99803.19
2022-10-31T01:08:40.240Z,99802.56
2022-10-31T01:11:18.709Z,99804.59
2022-10-31T01:13:49.465Z,99804.19
2022-10-31T01:16:22.142Z,99804.75
2022-10-31T01:18:53.367Z,99797.53
2022-10-31T01:21:25.071Z,99804.47
2022-10-31T01:23:55.458Z,99797.66
2022-10-31T01:26:31.619Z,99787.94
2022-10-31T01:29:08.201Z,99788.56
2022-10-31T01:31:40.234Z,99794.59
2022-10-31T01:34:08.214Z,99786.53
2022-10-31T01:36:40.429Z,99789.56
2022-10-31T01:39:14.245Z,99783.22
2022-10-31T01:41:46.368Z,99784.59
2022-10-31T01:44:16.901Z,99786.41
2022-10-31T01:47:15.157Z,99785.63
2022-10-31T01:49:50.414Z,99788.59
2022-10-31T01:52:34.040Z,99787.63
2022-10-31T01:55:32.128Z,99778.69
2022-10-31T01:58:11.296Z,99792.56
2022-10-31T02:00:40.831Z,99786.84
2022-10-31T02:03:08.431Z,99791.22
2022-10-31T02:05:37.341Z,99779.72
2022-10-31T02:08:32.567Z,99784.81
2022-10-31T02:11:01.207Z,99780.50
2022-10-31T02:13:31.121Z,99781.16
2022-10-31T02:16:01.010Z,99791.88
2022-10-31T02:18:32.074Z,99784.25
2022-10-31T02:21:17.408Z,99781.78
2022-10-31T02:24:12.803Z,99790.75
2022-10-31T02:26:44.799Z,99797.59
2022-10-31T02:29:29.891Z,99797.13
2022-10-31T02:32:11.138Z,99797.31
2022-10-31T02:34:45.281Z,99806.59
2022-10-31T02:37:27.253Z,99798.34
2022-10-31T02:40:06.870Z,99806.06
2022-10-31T02:43:26.172Z,99801.81
2022-10-31T02:46:25.786Z,99806.03
2022-10-31T02:48:58.418Z,99806.25
2022-10-31T02:51:26.047Z,99797.16
2022-10-31T02:53:53.562Z,99796.72
2022-10-31T02:56:21.685Z,99802.81
2022-10-31T02:59:05.885Z,99818.50
2022-10-31T03:01:53.121Z,99815.84
2022-10-31T03:04:45.333Z,99816.38
2022-10-31T03:07:42.833Z,99816.13
2022-10-31T03:10:41.096Z,99817.78
2022-10-31T03:13:14.239Z,99811.81
2022-10-31T03:15:47.779Z,99823.75
2022-10-31T03:18:50.471Z,99821.56
2022-10-31T03:21:31.741Z,99830.06
2022-10-31T03:24:02.876Z,99828.63
2022-10-31T03:26:31.520Z,99836.09
2022-10-31T03:29:04.988Z,99834.06
2022-10-31T03:32:09.312Z,99838.88
2022-10-31T03:34:40.171Z,99839.88
2022-10-31T03:37:12.692Z,99838.00
2022-10-31T03:39:43.760Z,99833.00
2022-10-31T03:42:19.986Z,99847.84
2022-10-31T03:45:08.505Z,99843.66
2022-10-31T03:47:38.805Z,99848.50
2022-10-31T03:50:11.196Z,99846.75
2022-10-31T03:52:53.578Z,99850.16
2022-10-31T03:55:50.849Z,99851.84
2022-10-31T03:58:38.344Z,99849.97
2022-10-31T04:01:12.524Z,99856.28
2022-10-31T04:03:42.579Z,99850.34
2022-10-31T04:06:15.660Z,99862.47
2022-10-31T04:08:52.261Z,99855.50
2022-10-31T04:11:25.875Z,99852.50
2022-10-31T04:14:13.308Z,99852.63
2022-10-31T04:16:44.925Z,99857.63
2022-10-31T04:19:14.854Z,99856.56
2022-10-31T04:21:44.414Z,99862.00
2022-10-31T04:24:13.068Z,99857.72
2022-10-31T04:26:41.478Z,99869.34
2022-10-31T04:29:09.014Z,99869.78
2022-10-31T04:31:36.548Z,99883.47
2022-10-31T04:34:04.052Z,99879.78
2022-10-31T04:36:32.146Z,99872.19
2022-10-31T04:38:59.586Z,99886.66
2022-10-31T04:41:37.110Z,99875.41
2022-10-31T04:44:10.213Z,99874.59
2022-10-31T04:46:37.748Z,99883.19
2022-10-31T04:49:06.107Z,99886.22
2022-10-31T04:51:33.591Z,99896.00
2022-10-31T04:54:01.815Z,99897.09
2022-10-31T04:56:29.250Z,99899.66
2022-10-31T04:59:00.019Z,99902.19
2022-10-31T05:01:31.700Z,99907.97
2022-10-31T05:04:00.961Z,99915.94
2022-10-31T05:06:30.252Z,99924.59
2022-10-31T05:08:58.639Z,99925.72
2022-10-31T05:11:26.149Z,99925.25
2022-10-31T05:13:56.242Z,99933.44
2022-10-31T05:17:01.671Z,99937.50
2022-10-31T05:20:04.484Z,99934.88
2022-10-31T05:23:07.268Z,99940.00
2022-10-31T05:25:36.329Z,99937.94
2022-10-31T05:28:05.549Z,99941.28
2022-10-31T05:30:35.304Z,99942.78
2022-10-31T05:33:04.405Z,99947.63
2022-10-31T05:35:50.700Z,99951.63
2022-10-31T05:38:36.480Z,99967.75
2022-10-31T05:41:15.347Z,99973.63
2022-10-31T05:43:47.560Z,99973.50
2022-10-31T05:46:16.727Z,99973.22
2022-10-31T05:49:03.033Z,99974.91
2022-10-31T05:51:49.285Z,99977.34
2022-10-31T05:54:16.848Z,99980.44
2022-10-31T05:56:46.481Z,99977.56
2022-10-31T05:59:13.986Z,99979.75
2022-10-31T06:01:43.212Z,99985.72
2022-10-31T06:04:26.295Z,99986.69
2022-10-31T06:06:53.772Z,99995.41
2022-10-31T06:09:21.299Z,99998.53
2022-10-31T06:11:51.600Z,100004.97
2022-10-31T06:14:39.322Z,100007.28
2022-10-31T06:17:06.783Z,100011.47
2022-10-31T06:22:21.820Z,100022.06
2022-10-31T06:24:49.402Z,100021.53
2022-10-31T06:27:31.312Z,100018.38
2022-10-31T06:30:04.954Z,100009.44
2022-10-31T06:32:36.294Z,100023.16
2022-10-31T06:35:03.975Z,100015.00
2022-10-31T06:37:34.269Z,100019.06
2022-10-31T06:40:13.044Z,100022.81
2022-10-31T06:43:02.395Z,100018.50
2022-10-31T06:45:31.684Z,100020.31
2022-10-31T06:48:18.398Z,100027.66
2022-10-31T06:51:12.356Z,100020.25
2022-10-31T06:53:39.838Z,100029.41
2022-10-31T06:56:09.559Z,100029.00
2022-10-31T06:58:42.102Z,100030.16
2022-10-31T07:01:12.027Z,100029.41
2022-10-31T07:03:43.480Z,100031.06
2022-10-31T07:06:10.930Z,100035.00
2022-10-31T07:08:39.696Z,100046.56
2022-10-31T07:11:08.103Z,100047.75
2022-10-31T07:13:35.791Z,100045.53
2022-10-31T07:16:07.954Z,100043.81
2022-10-31T07:18:40.278Z,100045.78
2022-10-31T07:21:09.453Z,100043.53
2022-10-31T07:23:40.034Z,100042.88
2022-10-31T07:26:27.080Z,100032.81
2022-10-31T07:28:54.670Z,100037.66
2022-10-31T07:31:25.531Z,100032.75
2022-10-31T07:33:58.030Z,100039.56
2022-10-31T07:36:28.322Z,100036.94
2022-10-31T07:39:00.796Z,100025.41
2022-10-31T07:41:28.351Z,100032.13
2022-10-31T07:43:56.386Z,100022.56
2022-10-31T07:46:42.208Z,100026.31
2022-10-31T07:49:35.821Z,100028.13
2022-10-31T07:52:21.750Z,100020.75
2022-10-31T07:55:08.521Z,100026.75
2022-10-31T07:57:40.352Z,100022.75
2022-10-31T08:00:11.364Z,100031.53
2022-10-31T08:02:47.646Z,100028.59
2022-10-31T08:05:53.163Z,100029.28
2022-10-31T08:08:38.286Z,100032.66
2022-10-31T08:11:08.386Z,100028.13
2022-10-31T08:13:35.906Z,100032.25
2022-10-31T08:16:05.377Z,100026.97
2022-10-31T08:18:38.492Z,100025.03
2022-10-31T08:21:07.922Z,100033.84
2022-10-31T08:23:36.393Z,100033.75
2022-10-31T08:26:07.175Z,100030.72
2022-10-31T08:28:34.929Z,100031.69
2022-10-31T08:31:03.717Z,100028.44
2022-10-31T08:33:57.017Z,100037.06
2022-10-31T08:36:47.426Z,100038.25
2022-10-31T08:39:21.693Z,100040.97
2022-10-31T08:41:51.379Z,100042.53
2022-10-31T08:44:18.987Z,100046.31
2022-10-31T08:46:46.501Z,100045.06
2022-10-31T08:49:14.929Z,100043.13
2022-10-31T08:51:44.274Z,100048.09
2022-10-31T08:54:11.758Z,100038.09
2022-10-31T08:56:58.583Z,100037.47
2022-10-31T08:59:40.994Z,100040.94
2022-10-31T09:02:23.625Z,100039.03
2022-10-31T09:04:54.499Z,100045.59
2022-10-31T09:07:21.921Z,100040.56
2022-10-31T09:09:49.785Z,100043.91
2022-10-31T09:12:19.512Z,100043.88
2022-10-31T09:15:07.498Z,100038.56
2022-10-31T09:17:51.869Z,100039.66
2022-10-31T09:20:32.635Z,100042.31
2022-10-31T09:23:04.357Z,100043.00
2022-10-31T09:25:34.360Z,100040.28
2022-10-31T09:28:25.799Z,100033.50
2022-10-31T09:30:55.456Z,100038.47
2022-10-31T09:33:47.540Z,100031.72
2022-10-31T09:36:45.204Z,100040.06
2022-10-31T09:39:19.909Z,100041.53
2022-10-31T09:42:20.704Z,100037.03
2022-10-31T09:45:07.467Z,100032.22
2022-10-31T09:47:52.373Z,100039.34
2022-10-31T09:51:07.431Z,100040.63
2022-10-31T10:02:55.856Z,100022.63
2022-10-31T10:05:54.748Z,100011.91
2022-10-31T10:08:37.093Z,100010.94
2022-10-31T10:12:12.483Z,100016.63
2022-10-31T10:15:31.052Z,100014.34
2022-10-31T10:18:29.218Z,100007.91
2022-10-31T10:21:46.543Z,100001.03
2022-10-31T10:24:24.878Z,100002.56
2022-10-31T10:27:13.958Z,99995.88
2022-10-31T10:29:52.878Z,99994.06
2022-10-31T10:32:30.833Z,99990.03
2022-10-31T10:35:34.835Z,99982.72
2022-10-31T10:38:20.142Z,99974.84
2022-10-31T10:40:48.860Z,99982.44
2022-10-31T10:43:32.493Z,99981.31
2022-10-31T10:46:36.327Z,99979.22
2022-10-31T10:49:40.224Z,99964.94
2022-10-31T10:53:09.988Z,99972.72
2022-10-31T10:55:54.064Z,99970.41
2022-10-31T10:58:22.209Z,99963.09
2022-10-31T11:00:56.196Z,99969.25
2022-10-31T11:03:23.750Z,99970.22
2022-10-31T11:05:59.879Z,99972.00
2022-10-31T11:08:33.115Z,99968.00
2022-10-31T11:11:19.887Z,99964.41
2022-10-31T11:13:52.465Z,99962.47
2022-10-31T11:16:28.879Z,99952.50
2022-10-31T11:19:09.359Z,99955.44
2022-10-31T11:21:36.866Z,99951.97
2022-10-31T11:24:28.450Z,99952.03
2022-10-31T11:27:21.436Z,99949.03
2022-10-31T11:29:50.042Z,99949.69
2022-10-31T11:32:27.301Z,99944.31
2022-10-31T11:35:00.231Z,99945.03
2022-10-31T11:37:43.290Z,99937.28
2022-10-31T11:40:26.616Z,99941.38
2022-10-31T11:43:00.160Z,99936.03
2022-10-31T11:45:32.274Z,99936.75
2022-10-31T11:48:02.269Z,99942.13
2022-10-31T11:50:43.606Z,99940.34
2022-10-31T11:53:32.144Z,99939.41
2022-10-31T11:56:16.897Z,99941.34
2022-10-31T11:58:57.544Z,99935.63
2022-10-31T12:01:33.774Z,99934.22
2022-10-31T12:04:37.561Z,99933.94
2022-10-31T12:07:05.230Z,99937.50
2022-10-31T12:09:37.737Z,99945.84
2022-10-31T12:12:34.962Z,99939.16
2022-10-31T12:15:32.849Z,99937.44
2022-10-31T12:18:54.094Z,99937.53
2022-10-31T12:21:32.096Z,99934.19
2022-10-31T12:24:23.325Z,99929.91
2022-10-31T12:27:32.311Z,99940.53
2022-10-31T12:30:20.854Z,99933.72
2022-10-31T12:33:38.916Z,99927.84
2022-10-31T12:36:47.352Z,99934.75
2022-10-31T12:39:33.194Z,99931.56
2022-10-31T12:42:18.565Z,99919.81
2022-10-31T12:45:00.370Z,99909.94
2022-10-31T12:47:39.641Z,99915.56
2022-10-31T12:50:43.556Z,99918.19
2022-10-31T12:54:15.142Z,99913.00
2022-10-31T12:57:39.301Z,99915.03
2022-10-31T13:00:17.050Z,99912.66
2022-10-31T13:06:14.231Z,99911.84
2022-10-31T13:08:56.201Z,99916.03
2022-10-31T13:11:31.774Z,99921.31
2022-10-31T13:14:27.380Z,99910.47
2022-10-31T13:16:57.843Z,99915.28
2022-10-31T13:19:45.216Z,99918.66
2022-10-31T13:22:26.740Z,99911.50
2022-10-31T13:25:18.130Z,99912.97
2022-10-31T13:28:15.678Z,99920.66
2022-10-31T13:31:50.158Z,99910.19
2022-10-31T13:34:51.994Z,99910.75
2022-10-31T13:37:47.158Z,99906.72
2022-10-31T13:40:38.622Z,99912.63
2022-10-31T13:43:24.416Z,99905.44
2022-10-31T13:45:57.051Z,99908.78
2022-10-31T13:48:30.043Z,99907.44
2022-10-31T13:51:05.680Z,99912.13
2022-10-31T13:54:01.881Z,99905.47
2022-10-31T13:56:34.455Z,99908.72
2022-10-31T13:59:15.913Z,99906.56
2022-10-31T14:01:58.290Z,99908.66
2022-10-31T14:04:38.857Z,99905.28
2022-10-31T14:07:22.310Z,99905.41
2022-10-31T14:09:49.796Z,99905.47
2022-10-31T14:12:45.571Z,99908.44
2022-10-31T14:15:17.273Z,99910.72
2022-10-31T14:17:54.805Z,99908.72
2022-10-31T14:20:42.362Z,99915.72
2022-10-31T14:23:39.010Z,99911.13
2022-10-31T14:26:27.742Z,99906.31
2022-10-31T14:29:01.478Z,99907.66
2022-10-31T14:31:35.820Z,99902.09
2022-10-31T14:34:21.434Z,99904.56
2022-10-31T14:37:33.190Z,99908.84
2022-10-31T14:40:21.932Z,99908.53
2022-10-31T14:43:22.682Z,99910.50
2022-10-31T14:46:09.469Z,99916.94
2022-10-31T14:48:48.522Z,99910.34
2022-10-31T14:51:37.514Z,99914.78
2022-10-31T14:54:09.091Z,99911.47
2022-10-31T14:56:56.698Z,99910.91
2022-10-31T14:59:31.896Z,99913.94
2022-10-31T15:02:16.450Z,99918.78
2022-10-31T15:04:47.457Z,99914.47
2022-10-31T15:07:25.786Z,99907.34
2022-10-31T15:10:08.089Z,99913.66
2022-10-31T15:12:40.171Z,99920.25
2022-10-31T15:15:26.889Z,99915.72
2022-10-31T15:18:02.074Z,99918.09
2022-10-31T15:20:35.606Z,99921.94
2022-10-31T15:23:03.728Z,99916.59
2022-10-31T15:25:36.255Z,99925.38
2022-10-31T15:28:17.165Z,99923.84
2022-10-31T15:31:02.434Z,99926.13
2022-10-31T15:33:47.995Z,99931.47
2022-10-31T15:36:28.508Z,99931.84
2022-10-31T15:38:58.844Z,99929.91
2022-10-31T15:41:31.932Z,99936.34
2022-10-31T15:44:20.623Z,99934.03
2022-10-31T15:47:04.026Z,99938.97
2022-10-31T15:49:37.865Z,99942.41
2022-10-31T15:52:39.971Z,99947.34
2022-10-31T15:55:16.727Z,99945.75
2022-10-31T15:57:52.382Z,99945.63
2022-10-31T16:00:36.450Z,99954.38
2022-10-31T16:03:16.822Z,99954.38
2022-10-31T16:05:52.506Z,99960.34
2022-10-31T16:08:38.885Z,99966.34
2022-10-31T16:11:09.161Z,99970.13
2022-10-31T16:13:56.962Z,99969.78
2022-10-31T16:16:40.709Z,99970.69
2022-10-31T16:19:24.340Z,99977.06
2022-10-31T16:22:11.400Z,99975.06
2022-10-31T16:24:58.868Z,99988.34
2022-10-31T16:27:33.991Z,99989.09
2022-10-31T16:30:08.184Z,99986.84
2022-10-31T16:33:00.866Z,100000.59
2022-10-31T16:35:40.341Z,100002.50
2022-10-31T16:38:10.370Z,100006.31
2022-10-31T16:40:40.687Z,100006.69
2022-10-31T16:43:13.496Z,100008.97
2022-10-31T16:45:47.045Z,100007.31
2022-10-31T16:48:21.752Z,100006.94
2022-10-31T16:50:51.860Z,100016.03
2022-10-31T16:53:21.419Z,100011.41
2022-10-31T16:55:56.424Z,100016.28
2022-10-31T16:58:44.933Z,100024.59
2022-10-31T17:01:14.220Z,100021.47
2022-10-31T17:03:46.084Z,100019.94
2022-10-31T17:06:15.684Z,100023.78
2022-10-31T17:08:45.977Z,100028.34
2022-10-31T17:11:21.694Z,100032.31
2022-10-31T17:14:09.316Z,100032.00
2022-10-31T17:16:58.843Z,100034.09
2022-10-31T17:19:28.839Z,100038.22
2022-10-31T17:21:56.350Z,100038.22
2022-10-31T17:24:47.938Z,100036.63
2022-10-31T17:27:23.158Z,100044.47
2022-10-31T17:29:51.788Z,100045.16
2022-10-31T17:32:20.287Z,100041.22
2022-10-31T17:35:09.294Z,100040.72
2022-10-31T17:37:40.994Z,100054.34
2022-10-31T17:40:14.669Z,100056.50
2022-10-31T17:42:51.408Z,100048.03
2022-10-31T17:45:25.906Z,100058.81
2022-10-31T17:47:56.244Z,100072.13
2022-10-31T17:50:30.711Z,100077.59
2022-10-31T17:53:00.126Z,100074.88
2022-10-31T17:55:29.681Z,100077.22
2022-10-31T17:58:00.841Z,100076.44
2022-10-31T18:00:29.149Z,100070.13
2022-10-31T18:03:00.624Z,100072.94
2022-10-31T18:05:28.854Z,100075.16
2022-10-31T18:07:59.599Z,100078.06
2022-10-31T18:10:37.319Z,100085.03
2022-10-31T18:13:06.738Z,100091.59
2022-10-31T18:15:41.023Z,100094.53
2022-10-31T18:18:09.117Z,100091.22
2022-10-31T18:20:40.826Z,100096.53
2022-10-31T18:23:09.707Z,100093.38
2022-10-31T18:25:41.024Z,100091.13
2022-10-31T18:28:12.281Z,100102.31
2022-10-31T18:31:03.145Z,100094.63
2022-10-31T18:33:34.864Z,100103.31
2022-10-31T18:36:09.494Z,100101.22
2022-10-31T18:38:47.905Z,100098.31
2022-10-31T18:41:18.478Z,100101.06
2022-10-31T18:43:46.049Z,100109.13
2022-10-31T18:46:16.009Z,100109.72
2022-10-31T18:48:45.040Z,100110.81
2022-10-31T18:51:18.375Z,100121.91
2022-10-31T18:54:03.022Z,100131.78
2022-10-31T18:56:31.847Z,100127.06
2022-10-31T18:59:03.617Z,100135.03
2022-10-31T19:01:31.734Z,100131.50
2022-10-31T19:04:00.695Z,100142.47
2022-10-31T19:06:28.628Z,100146.00
2022-10-31T19:09:03.497Z,100146.47
2022-10-31T19:11:34.586Z,100142.84
2022-10-31T19:14:02.627Z,100139.78
2022-10-31T19:16:30.709Z,100152.19
2022-10-31T19:19:00.308Z,100144.97
2022-10-31T19:21:33.432Z,100145.66
2022-10-31T19:24:02.287Z,100151.41
2022-10-31T19:26:33.263Z,100153.03
2022-10-31T19:29:00.963Z,100158.91
2022-10-31T19:31:31.538Z,100164.84
2022-10-31T19:33:59.018Z,100160.13
2022-10-31T19:36:26.892Z,100159.13
2022-10-31T19:38:54.878Z,100164.88
2022-10-31T19:41:26.155Z,100161.22
2022-10-31T19:43:54.952Z,100167.53
2022-10-31T19:46:48.171Z,100168.66
2022-10-31T19:49:14.428Z,100166.22
2022-10-31T19:51:42.377Z,100175.28
2022-10-31T19:54:10.652Z,100179.91
2022-10-31T19:56:38.038Z,100172.84
2022-10-31T19:59:05.665Z,100176.81
2022-10-31T20:01:33.243Z,100184.31
2022-10-31T20:04:01.121Z,100179.84
2022-10-31T20:06:32.052Z,100186.63
2022-10-31T20:09:02.495Z,100192.69
2022-10-31T20:11:30.404Z,100191.38
2022-10-31T20:14:00.893Z,100190.59
2022-10-31T20:16:29.928Z,100191.47
2022-10-31T20:19:00.609Z,100200.53
2022-10-31T20:21:31.047Z,100193.69
2022-10-31T20:24:05.781Z,100196.41
2022-10-31T20:26:34.250Z,100203.34
2022-10-31T20:29:03.310Z,100202.56
2022-10-31T20:31:36.630Z,100199.38
2022-10-31T20:34:04.609Z,100196.38
2022-10-31T20:36:32.397Z,100199.81
2022-10-31T20:39:00.407Z,100199.22
2022-10-31T20:41:30.250Z,100201.44
2022-10-31T20:44:00.373Z,100208.84
2022-10-31T20:46:28.307Z,100209.38
2022-10-31T20:48:56.245Z,100205.22
2022-10-31T20:51:31.852Z,100208.53
2022-10-31T20:54:03.920Z,100213.34
2022-10-31T20:56:31.449Z,100206.72
2022-10-31T20:58:59.620Z,100217.94
2022-10-31T21:01:33.500Z,100219.09
2022-10-31T21:04:01.282Z,100217.22
2022-10-31T21:06:30.281Z,100220.41
2022-10-31T21:08:59.142Z,100215.66
2022-10-31T21:11:28.396Z,100216.34
2022-10-31T21:13:56.289Z,100215.84
2022-10-31T21:16:35.980Z,100215.16
2022-10-31T21:19:06.324Z,100211.25
2022-10-31T21:21:38.200Z,100222.59
2022-10-31T21:24:16.641Z,100220.91
2022-10-31T21:26:50.466Z,100217.56
2022-10-31T21:29:19.662Z,100219.78
2022-10-31T21:31:49.844Z,100225.91
2022-10-31T21:34:17.599Z,100220.66
2022-10-31T21:36:46.488Z,100220.88
2022-10-31T21:39:15.320Z,100220.78
2022-10-31T21:41:42.728Z,100226.53
2022-10-31T21:44:10.102Z,100224.56
2022-10-31T21:46:39.989Z,100221.25
2022-10-31T21:49:07.528Z,100226.28
2022-10-31T21:51:36.883Z,100226.28
2022-10-31T21:54:23.909Z,100228.16
2022-10-31T21:56:51.857Z,100226.75
2022-10-31T21:59:19.371Z,100226.53
2022-10-31T22:01:50.427Z,100230.75
2022-10-31T22:04:19.249Z,100229.16
2022-10-31T22:06:46.728Z,100230.69
2022-10-31T22:09:15.808Z,100220.09
2022-10-31T22:11:44.068Z,100230.22
2022-10-31T22:14:13.832Z,100226.81
2022-10-31T22:16:42.137Z,100232.88
2022-10-31T22:19:12.893Z,100229.84
2022-10-31T22:21:47.222Z,100225.53
2022-10-31T22:24:16.152Z,100227.91
2022-10-31T22:26:44.525Z,100229.22
2022-10-31T22:29:16.037Z,100224.09
2022-10-31T22:31:49.410Z,100226.28
2022-10-31T22:34:19.642Z,100231.13
2022-10-31T22:36:47.251Z,100228.16
2022-10-31T22:39:15.174Z,100235.16
2022-10-31T22:41:42.814Z,100230.19
2022-10-31T22:44:10.353Z,100229.72
2022-10-31T22:46:40.407Z,100231.53
2022-10-31T22:49:17.506Z,100235.00
2022-10-31T22:51:45.814Z,100233.25
2022-10-31T22:54:18.593Z,100240.44
2022-10-31T22:56:47.022Z,100227.88
2022-10-31T22:59:16.374Z,100229.72
2022-10-31T23:01:45.912Z,100228.31
2022-10-31T23:04:16.354Z,100222.34
2022-10-31T23:06:44.599Z,100223.94
2022-10-31T23:09:16.106Z,100221.19
2022-10-31T23:11:45.306Z,100220.75
2022-10-31T23:14:20.585Z,100223.38
2022-10-31T23:16:56.131Z,100225.31
2022-10-31T23:19:29.471Z,100234.38
2022-10-31T23:22:04.022Z,100227.25
2022-10-31T23:24:44.090Z,100222.31
2022-10-31T23:27:22.662Z,100231.94
2022-10-31T23:29:52.463Z,100230.69
2022-10-31T23:32:29.558Z,100230.22
2022-10-31T23:35:06.016Z,100232.53
2022-10-31T23:37:36.666Z,100230.53
2022-10-31T23:40:05.540Z,100244.03
2022-10-31T23:42:36.442Z,100234.72
2022-10-31T23:45:06.736Z,100242.16
2022-10-31T23:47:34.215Z,100245.75
2022-10-31T23:50:01.609Z,100241.25
2022-10-31T23:52:29.058Z,100235.34
2022-10-31T23:54:56.676Z,100237.59
2022-10-31T23:57:24.142Z,100246.22
2022-10-31T23:59:51.546Z,100250.88
